TimeCDT,TemperatureF,Dew PointF,Humidity,Sea Level PressureIn,VisibilityMPH,Wind Direction,Wind SpeedMPH,Gust SpeedMPH,PrecipitationIn,Events,Conditions,WindDirDegrees,DateUTC
12:12 AM,59.0,57.2,94,29.87,7.0,Calm,Calm,-,N/A,,Overcast,0,2013-06-29 05:12:00
12:32 AM,59.0,57.2,94,29.87,7.0,Calm,Calm,-,N/A,,Overcast,0,2013-06-29 05:32:00
12:52 AM,59.0,57.2,94,29.87,7.0,Calm,Calm,-,N/A,,Overcast,0,2013-06-29 05:52:00
1:12 AM,59.0,57.2,94,29.87,3.0,Calm,Calm,-,N/A,,Overcast,0,2013-06-29 06:12:00
1:32 AM,59.0,57.2,94,29.87,7.0,Calm,Calm,-,N/A,,Overcast,0,2013-06-29 06:32:00
1:52 AM,59.0,57.2,94,29.87,10.0,Calm,Calm,-,N/A,,Mostly Cloudy,0,2013-06-29 06:52:00
2:12 AM,57.2,57.2,100,29.87,7.0,Calm,Calm,-,N/A,,Clear,0,2013-06-29 07:12:00
2:32 AM,57.2,55.4,94,29.87,5.0,Calm,Calm,-,N/A,,Clear,0,2013-06-29 07:32:00
2:52 AM,57.2,55.4,94,29.87,2.5,Calm,Calm,-,N/A,,Scattered Clouds,0,2013-06-29 07:52:00
3:12 AM,57.2,55.4,94,29.87,2.5,NW,3.5,-,N/A,,Clear,320,2013-06-29 08:12:00
3:32 AM,57.2,57.2,100,29.87,10.0,NW,3.5,-,N/A,,Clear,310,2013-06-29 08:32:00
3:52 AM,59.0,57.2,94,29.87,10.0,Calm,Calm,-,N/A,,Clear,0,2013-06-29 08:52:00
4:12 AM,55.4,53.6,94,29.89,7.0,Calm,Calm,-,N/A,,Clear,0,2013-06-29 09:12:00
4:32 AM,53.6,53.6,100,29.89,5.0,Calm,Calm,-,N/A,,Clear,0,2013-06-29 09:32:00
4:52 AM,55.4,55.4,100,29.89,10.0,Calm,Calm,-,N/A,,Clear,0,2013-06-29 09:52:00
5:12 AM,57.2,55.4,94,29.90,10.0,Calm,Calm,-,N/A,,Clear,0,2013-06-29 10:12:00
5:32 AM,55.4,53.6,94,29.91,10.0,Calm,Calm,-,N/A,,Clear,0,2013-06-29 10:32:00
5:52 AM,55.4,55.4,100,29.92,10.0,Calm,Calm,-,N/A,,Clear,0,2013-06-29 10:52:00
6:12 AM,57.2,57.2,100,29.92,10.0,Calm,Calm,-,N/A,,Clear,0,2013-06-29 11:12:00
6:32 AM,57.2,57.2,100,29.92,10.0,NNW,3.5,-,N/A,,Clear,340,2013-06-29 11:32:00
6:52 AM,59.0,57.2,94,29.93,10.0,Calm,Calm,-,N/A,,Clear,0,2013-06-29 11:52:00
7:12 AM,59.0,59.0,100,29.94,10.0,Calm,Calm,-,N/A,,Clear,0,2013-06-29 12:12:00
7:32 AM,60.8,59.0,94,29.94,10.0,Calm,Calm,-,N/A,,Clear,0,2013-06-29 12:32:00
7:52 AM,60.8,60.8,100,29.95,10.0,Calm,Calm,-,N/A,,Clear,0,2013-06-29 12:52:00
8:12 AM,60.8,60.8,100,29.95,10.0,Calm,Calm,-,N/A,,Clear,0,2013-06-29 13:12:00
8:32 AM,64.4,62.6,94,29.95,10.0,Calm,Calm,-,N/A,,Clear,0,2013-06-29 13:32:00
8:52 AM,64.4,62.6,94,29.96,10.0,NNE,3.5,-,N/A,,Clear,20,2013-06-29 13:52:00
9:12 AM,64.4,62.6,94,29.97,10.0,NNE,4.6,-,N/A,,Clear,20,2013-06-29 14:12:00
9:32 AM,64.4,64.4,100,29.97,10.0,NE,6.9,-,N/A,,Clear,40,2013-06-29 14:32:00
9:52 AM,66.2,66.2,100,29.97,10.0,NNE,5.8,-,N/A,,Clear,20,2013-06-29 14:52:00
10:12 AM,68.0,66.2,94,29.98,10.0,NE,5.8,-,N/A,,Clear,40,2013-06-29 15:12:00
10:32 AM,69.8,68.0,94,29.98,10.0,North,5.8,-,N/A,,Clear,10,2013-06-29 15:32:00
10:52 AM,69.8,68.0,94,29.98,10.0,NE,8.1,-,N/A,,Clear,50,2013-06-29 15:52:00
11:12 AM,69.8,69.8,100,29.98,10.0,North,9.2,-,N/A,,Clear,10,2013-06-29 16:12:00
11:32 AM,69.8,66.2,88,29.99,10.0,NE,4.6,-,N/A,,Clear,40,2013-06-29 16:32:00
11:52 AM,69.8,66.2,88,29.99,10.0,North,3.5,-,N/A,,Clear,10,2013-06-29 16:52:00
12:12 PM,69.8,66.2,88,30.00,10.0,NNE,8.1,-,N/A,,Clear,20,2013-06-29 17:12:00
12:32 PM,69.8,62.6,78,30.01,10.0,NNE,8.1,-,N/A,,Clear,20,2013-06-29 17:32:00
12:52 PM,71.6,62.6,73,30.00,10.0,North,10.4,-,N/A,,Clear,360,2013-06-29 17:52:00
1:12 PM,71.6,60.8,69,30.00,10.0,North,5.8,-,N/A,,Scattered Clouds,10,2013-06-29 18:12:00
1:32 PM,71.6,57.2,60,30.01,10.0,NNE,5.8,-,N/A,,Scattered Clouds,20,2013-06-29 18:32:00
1:52 PM,73.4,53.6,50,30.01,10.0,North,4.6,-,N/A,,Scattered Clouds,10,2013-06-29 18:52:00
2:12 PM,73.4,53.6,50,30.01,10.0,North,4.6,-,N/A,,Scattered Clouds,10,2013-06-29 19:12:00
2:32 PM,73.4,53.6,50,30.01,10.0,NNE,3.5,-,N/A,,Clear,30,2013-06-29 19:32:00
2:52 PM,75.2,53.6,47,30.01,10.0,Calm,Calm,-,N/A,,Clear,0,2013-06-29 19:52:00
3:12 PM,75.2,51.8,44,30.02,10.0,NNE,6.9,-,N/A,,Clear,20,2013-06-29 20:12:00
3:32 PM,73.4,50.0,44,30.02,10.0,NE,4.6,-,N/A,,Scattered Clouds,40,2013-06-29 20:32:00
3:52 PM,75.2,50.0,41,30.02,10.0,NNE,3.5,-,N/A,,Scattered Clouds,30,2013-06-29 20:52:00
4:12 PM,75.2,48.2,38,30.02,10.0,NNE,4.6,-,N/A,,Clear,30,2013-06-29 21:12:00
4:32 PM,73.4,48.2,41,30.02,10.0,Calm,Calm,-,N/A,,Clear,0,2013-06-29 21:32:00
4:52 PM,75.2,50.0,41,30.02,10.0,NNE,3.5,-,N/A,,Clear,30,2013-06-29 21:52:00
5:12 PM,73.4,48.2,41,30.02,10.0,North,3.5,-,N/A,,Clear,10,2013-06-29 22:12:00
5:32 PM,73.4,48.2,41,30.01,10.0,Calm,Calm,-,N/A,,Clear,0,2013-06-29 22:32:00
5:52 PM,75.2,48.2,38,30.01,10.0,Calm,Calm,-,N/A,,Clear,0,2013-06-29 22:52:00
6:12 PM,75.2,48.2,38,30.01,10.0,North,3.5,-,N/A,,Clear,360,2013-06-29 23:12:00
6:32 PM,73.4,48.2,41,30.01,10.0,Calm,Calm,-,N/A,,Clear,0,2013-06-29 23:32:00
6:52 PM,73.4,48.2,41,30.02,7.0,Calm,Calm,-,N/A,,Clear,0,2013-06-29 23:52:00
7:12 PM,73.4,51.8,47,30.01,7.0,Calm,Calm,-,N/A,,Clear,0,2013-06-30 00:12:00
7:32 PM,73.4,53.6,50,30.01,10.0,Calm,Calm,-,N/A,,Clear,0,2013-06-30 00:32:00
7:52 PM,69.8,53.6,56,30.01,10.0,Calm,Calm,-,N/A,,Clear,0,2013-06-30 00:52:00
8:12 PM,66.2,53.6,64,30.01,10.0,Calm,Calm,-,N/A,,Clear,0,2013-06-30 01:12:00
8:32 PM,62.6,51.8,68,30.01,10.0,Calm,Calm,-,N/A,,Clear,0,2013-06-30 01:32:00
8:52 PM,59.0,51.8,77,30.02,10.0,Calm,Calm,-,N/A,,Clear,0,2013-06-30 01:52:00
9:12 PM,57.2,51.8,82,30.02,7.0,Calm,Calm,-,N/A,,Clear,0,2013-06-30 02:12:00
9:32 PM,55.4,50.0,82,30.03,7.0,Calm,Calm,-,N/A,,Clear,0,2013-06-30 02:32:00
9:52 PM,53.6,48.2,82,30.03,7.0,Calm,Calm,-,N/A,,Clear,0,2013-06-30 02:52:00
10:12 PM,53.6,48.2,82,30.03,7.0,Calm,Calm,-,N/A,,Clear,0,2013-06-30 03:12:00
10:32 PM,51.8,48.2,88,30.03,7.0,Calm,Calm,-,N/A,,Clear,0,2013-06-30 03:32:00
10:52 PM,51.8,48.2,88,30.03,7.0,Calm,Calm,-,N/A,,Clear,0,2013-06-30 03:52:00
11:12 PM,51.8,48.2,88,30.04,7.0,Calm,Calm,-,N/A,,Clear,0,2013-06-30 04:12:00
11:32 PM,50.0,46.4,87,30.04,7.0,Calm,Calm,-,N/A,,Clear,0,2013-06-30 04:32:00
11:52 PM,48.2,46.4,93,30.04,5.0,Calm,Calm,-,N/A,,Clear,0,2013-06-30 04:52:00